AAR3615 RKSS-ZSSS
Flight info
| Callsign | AAR3615 |
|---|---|
| Flight time | 1h 31m |
| Altitude | 36000 |
| Route | BULTI2Q BULTI Y711 PONIK A593 LAMEN/K0896F280 A593 AKARA/K0891S0840 A593 PUD PUD72A |
| Aircraft | A333/H-SDE3GHIJ2J3J5M1RVWXY/LB2D1 |
Departure
| Time | 2026-04-30 08:07 |
|---|---|
| Airport | Gimpo International Airport (RKSS) |
Arrival
| Time | 2026-04-30 09:38 |
|---|---|
| Airport | Shanghai Hongqiao International Airport (ZSSS) |
| Time | Latitude | Longitude | Altitude | Speed | Heading |
|---|---|---|---|---|---|
| 2026-04-30 07:37 | 37.56734 | 126.80130 | 55 ft | 0 kts | 135° |
| 2026-04-30 07:56 | 37.56739 | 126.80123 | 55 ft | 2 kts | 135° |
| 2026-04-30 07:56 | 37.56750 | 126.80110 | 55 ft | 2 kts | 135° |
| 2026-04-30 07:56 | 37.56761 | 126.80096 | 55 ft | 2 kts | 135° |
| 2026-04-30 07:56 | 37.56771 | 126.80084 | 55 ft | 2 kts | 135° |
| 2026-04-30 07:57 | 37.56782 | 126.80070 | 55 ft | 2 kts | 138° |
| 2026-04-30 07:57 | 37.56795 | 126.80061 | 55 ft | 2 kts | 170° |
| 2026-04-30 07:57 | 37.56811 | 126.80061 | 55 ft | 2 kts | 195° |
| 2026-04-30 07:57 | 37.56824 | 126.80070 | 55 ft | 1 kts | 220° |
| 2026-04-30 07:58 | 37.56829 | 126.80075 | 55 ft | 1 kts | 228° |
| 2026-04-30 07:58 | 37.56831 | 126.80078 | 55 ft | 0 kts | 226° |
| 2026-04-30 07:58 | 37.56831 | 126.80077 | 55 ft | 0 kts | 226° |
| 2026-04-30 07:58 | 37.56830 | 126.80077 | 55 ft | 1 kts | 226° |
| 2026-04-30 07:59 | 37.56776 | 126.80009 | 56 ft | 18 kts | 225° |
| 2026-04-30 07:59 | 37.56672 | 126.79878 | 58 ft | 23 kts | 224° |
| 2026-04-30 07:59 | 37.56551 | 126.79726 | 60 ft | 24 kts | 225° |
| 2026-04-30 08:00 | 37.56307 | 126.79422 | 66 ft | 24 kts | 225° |
| 2026-04-30 08:00 | 37.56187 | 126.79278 | 67 ft | 22 kts | 206° |
| 2026-04-30 08:00 | 37.56078 | 126.79369 | 69 ft | 20 kts | 135° |
| 2026-04-30 08:00 | 37.55961 | 126.79515 | 71 ft | 25 kts | 135° |
| 2026-04-30 08:01 | 37.55837 | 126.79672 | 72 ft | 25 kts | 135° |
| 2026-04-30 08:01 | 37.55712 | 126.79829 | 69 ft | 25 kts | 135° |
| 2026-04-30 08:01 | 37.55586 | 126.79986 | 67 ft | 25 kts | 135° |
| 2026-04-30 08:01 | 37.55461 | 126.80143 | 64 ft | 25 kts | 136° |
| 2026-04-30 08:02 | 37.55255 | 126.80402 | 57 ft | 16 kts | 135° |
| 2026-04-30 08:02 | 37.55183 | 126.80490 | 55 ft | 11 kts | 144° |
| 2026-04-30 08:03 | 37.55117 | 126.80476 | 56 ft | 0 kts | 223° |
| 2026-04-30 08:03 | 37.55107 | 126.80463 | 56 ft | 0 kts | 223° |
| 2026-04-30 08:04 | 37.55106 | 126.80463 | 56 ft | 0 kts | 223° |
| 2026-04-30 08:04 | 37.55070 | 126.80419 | 57 ft | 12 kts | 225° |
| 2026-04-30 08:05 | 37.55003 | 126.80334 | 55 ft | 14 kts | 226° |
| 2026-04-30 08:05 | 37.54934 | 126.80245 | 55 ft | 13 kts | 225° |
| 2026-04-30 08:05 | 37.54870 | 126.80164 | 55 ft | 12 kts | 225° |
| 2026-04-30 08:05 | 37.54832 | 126.80068 | 53 ft | 14 kts | 296° |
| 2026-04-30 08:06 | 37.54855 | 126.80035 | 53 ft | 0 kts | 316° |
| 2026-04-30 08:06 | 37.54870 | 126.80016 | 53 ft | 15 kts | 316° |
| 2026-04-30 08:07 | 37.55174 | 126.79639 | 51 ft | 108 kts | 315° |
| 2026-04-30 08:07 | 37.55904 | 126.78718 | 141 ft | 178 kts | 315° |
| 2026-04-30 08:07 | 37.56746 | 126.77640 | 1286 ft | 175 kts | 315° |
| 2026-04-30 08:07 | 37.57611 | 126.76560 | 2409 ft | 180 kts | 315° |
| 2026-04-30 08:08 | 37.58490 | 126.75470 | 3487 ft | 183 kts | 315° |
| 2026-04-30 08:08 | 37.59399 | 126.74397 | 4555 ft | 186 kts | 315° |
| 2026-04-30 08:08 | 37.60374 | 126.73146 | 5161 ft | 217 kts | 313° |
| 2026-04-30 08:08 | 37.61412 | 126.71633 | 5947 ft | 243 kts | 303° |
| 2026-04-30 08:09 | 37.62082 | 126.69601 | 6745 ft | 268 kts | 279° |
| 2026-04-30 08:09 | 37.61840 | 126.67187 | 7737 ft | 289 kts | 247° |
| 2026-04-30 08:09 | 37.60696 | 126.65048 | 8865 ft | 305 kts | 232° |
| 2026-04-30 08:09 | 37.59160 | 126.63028 | 9530 ft | 334 kts | 227° |
| 2026-04-30 08:10 | 37.57342 | 126.60950 | 10121 ft | 366 kts | 218° |
| 2026-04-30 08:10 | 37.54974 | 126.59595 | 11002 ft | 390 kts | 197° |
| 2026-04-30 08:10 | 37.52265 | 126.59135 | 12288 ft | 399 kts | 187° |
| 2026-04-30 08:10 | 37.49445 | 126.58978 | 13426 ft | 408 kts | 186° |
| 2026-04-30 08:11 | 37.46637 | 126.58881 | 14620 ft | 413 kts | 186° |
| 2026-04-30 08:11 | 37.43753 | 126.58775 | 15691 ft | 420 kts | 186° |
| 2026-04-30 08:11 | 37.40827 | 126.58704 | 16800 ft | 427 kts | 184° |
| 2026-04-30 08:11 | 37.37837 | 126.58965 | 17786 ft | 438 kts | 178° |
| 2026-04-30 08:12 | 37.34839 | 126.59728 | 18764 ft | 450 kts | 170° |
| 2026-04-30 08:12 | 37.31849 | 126.60906 | 19687 ft | 459 kts | 166° |
| 2026-04-30 08:12 | 37.28836 | 126.62382 | 20557 ft | 469 kts | 162° |
| 2026-04-30 08:12 | 37.25883 | 126.64265 | 21423 ft | 481 kts | 155° |
| 2026-04-30 08:13 | 37.23025 | 126.66464 | 22254 ft | 489 kts | 154° |
| 2026-04-30 08:13 | 37.20134 | 126.68767 | 22984 ft | 496 kts | 154° |
| 2026-04-30 08:13 | 37.17192 | 126.71135 | 23765 ft | 502 kts | 154° |
| 2026-04-30 08:13 | 37.14242 | 126.73520 | 24492 ft | 508 kts | 154° |
| 2026-04-30 08:14 | 37.11230 | 126.75960 | 25176 ft | 514 kts | 154° |
| 2026-04-30 08:14 | 37.08166 | 126.78252 | 25921 ft | 511 kts | 159° |
| 2026-04-30 08:14 | 37.04921 | 126.80042 | 26609 ft | 506 kts | 167° |
| 2026-04-30 08:14 | 37.01546 | 126.81195 | 27409 ft | 494 kts | 177° |
| 2026-04-30 08:15 | 36.98190 | 126.81629 | 28240 ft | 484 kts | 184° |
| 2026-04-30 08:15 | 36.94844 | 126.81787 | 28973 ft | 481 kts | 186° |
| 2026-04-30 08:15 | 36.91488 | 126.81895 | 29430 ft | 484 kts | 186° |
| 2026-04-30 08:15 | 36.88202 | 126.81998 | 30059 ft | 481 kts | 186° |
| 2026-04-30 08:16 | 36.84874 | 126.82104 | 30697 ft | 479 kts | 186° |
| 2026-04-30 08:16 | 36.81546 | 126.82207 | 31200 ft | 478 kts | 187° |
| 2026-04-30 08:16 | 36.78244 | 126.82311 | 31736 ft | 476 kts | 187° |
| 2026-04-30 08:16 | 36.74928 | 126.82415 | 32305 ft | 473 kts | 187° |
| 2026-04-30 08:17 | 36.71625 | 126.82521 | 32806 ft | 472 kts | 187° |
| 2026-04-30 08:17 | 36.68371 | 126.82642 | 33248 ft | 472 kts | 187° |
| 2026-04-30 08:17 | 36.65054 | 126.82771 | 33691 ft | 470 kts | 187° |
| 2026-04-30 08:17 | 36.61798 | 126.82898 | 34134 ft | 469 kts | 187° |
| 2026-04-30 08:18 | 36.58581 | 126.83025 | 34608 ft | 465 kts | 187° |
| 2026-04-30 08:18 | 36.55351 | 126.83152 | 34966 ft | 466 kts | 187° |
| 2026-04-30 08:18 | 36.52087 | 126.83274 | 35252 ft | 466 kts | 187° |
| 2026-04-30 08:18 | 36.48872 | 126.83395 | 35576 ft | 464 kts | 188° |
| 2026-04-30 08:19 | 36.45666 | 126.83514 | 35815 ft | 464 kts | 187° |
| 2026-04-30 08:19 | 36.42456 | 126.83633 | 35964 ft | 462 kts | 188° |
| 2026-04-30 08:19 | 36.39234 | 126.83722 | 35957 ft | 459 kts | 190° |
| 2026-04-30 08:20 | 36.32958 | 126.83216 | 35969 ft | 452 kts | 194° |
| 2026-04-30 08:20 | 36.26739 | 126.82518 | 35973 ft | 451 kts | 194° |
| 2026-04-30 08:21 | 36.20496 | 126.81824 | 35973 ft | 452 kts | 194° |
| 2026-04-30 08:21 | 36.14262 | 126.81137 | 35972 ft | 452 kts | 194° |
| 2026-04-30 08:22 | 36.07995 | 126.80453 | 35972 ft | 452 kts | 194° |
| 2026-04-30 08:22 | 36.01770 | 126.79775 | 35972 ft | 452 kts | 194° |
| 2026-04-30 08:23 | 35.95504 | 126.79095 | 35972 ft | 453 kts | 194° |
| 2026-04-30 08:23 | 35.89243 | 126.78419 | 35972 ft | 451 kts | 194° |
| 2026-04-30 08:24 | 35.83011 | 126.77742 | 35972 ft | 451 kts | 194° |
| 2026-04-30 08:24 | 35.76779 | 126.77065 | 35972 ft | 451 kts | 194° |
| 2026-04-30 08:25 | 35.70546 | 126.76390 | 35972 ft | 452 kts | 194° |
| 2026-04-30 08:25 | 35.64323 | 126.75719 | 35972 ft | 451 kts | 194° |
| 2026-04-30 08:26 | 35.58087 | 126.75048 | 35972 ft | 452 kts | 194° |
| 2026-04-30 08:26 | 35.51837 | 126.74375 | 35972 ft | 453 kts | 194° |
| 2026-04-30 08:27 | 35.45557 | 126.73702 | 35978 ft | 453 kts | 194° |
| 2026-04-30 08:27 | 35.39349 | 126.73040 | 35986 ft | 451 kts | 194° |
| 2026-04-30 08:28 | 35.33071 | 126.72368 | 35992 ft | 452 kts | 194° |
| 2026-04-30 08:28 | 35.26820 | 126.71700 | 35993 ft | 452 kts | 194° |
| 2026-04-30 08:29 | 35.20605 | 126.71037 | 35993 ft | 451 kts | 194° |
| 2026-04-30 08:29 | 35.14391 | 126.70378 | 35993 ft | 451 kts | 194° |
| 2026-04-30 08:30 | 35.08164 | 126.69717 | 35993 ft | 451 kts | 194° |
| 2026-04-30 08:30 | 35.01903 | 126.69051 | 35993 ft | 451 kts | 194° |
| 2026-04-30 08:31 | 34.95690 | 126.68392 | 35993 ft | 451 kts | 193° |
| 2026-04-30 08:31 | 34.89406 | 126.67725 | 35993 ft | 453 kts | 192° |
| 2026-04-30 08:32 | 34.83120 | 126.67060 | 35993 ft | 454 kts | 192° |
| 2026-04-30 08:32 | 34.76849 | 126.66399 | 35993 ft | 454 kts | 192° |
| 2026-04-30 08:33 | 34.70551 | 126.65736 | 35993 ft | 454 kts | 192° |
| 2026-04-30 08:33 | 34.64283 | 126.65076 | 35993 ft | 454 kts | 192° |
| 2026-04-30 08:34 | 34.58033 | 126.64421 | 35993 ft | 454 kts | 192° |
| 2026-04-30 08:34 | 34.51750 | 126.63763 | 35993 ft | 454 kts | 192° |
| 2026-04-30 08:35 | 34.45472 | 126.63106 | 35993 ft | 454 kts | 192° |
| 2026-04-30 08:35 | 34.39233 | 126.62453 | 35993 ft | 453 kts | 192° |
| 2026-04-30 08:36 | 34.32904 | 126.61794 | 35993 ft | 454 kts | 192° |
| 2026-04-30 08:36 | 34.26608 | 126.61138 | 35993 ft | 454 kts | 192° |
| 2026-04-30 08:37 | 34.20313 | 126.60481 | 35993 ft | 454 kts | 192° |
| 2026-04-30 08:37 | 34.13992 | 126.59821 | 35993 ft | 454 kts | 192° |
| 2026-04-30 08:38 | 34.07700 | 126.59166 | 35993 ft | 454 kts | 192° |
| 2026-04-30 08:38 | 34.01405 | 126.58511 | 35993 ft | 454 kts | 192° |
| 2026-04-30 08:39 | 33.95126 | 126.57860 | 35993 ft | 454 kts | 192° |
| 2026-04-30 08:39 | 33.88855 | 126.57194 | 35992 ft | 453 kts | 193° |
| 2026-04-30 08:40 | 33.82696 | 126.55822 | 35991 ft | 443 kts | 203° |
| 2026-04-30 08:40 | 33.76928 | 126.53511 | 35993 ft | 441 kts | 206° |
| 2026-04-30 08:41 | 33.71111 | 126.51031 | 35993 ft | 441 kts | 206° |
| 2026-04-30 08:41 | 33.65318 | 126.48542 | 35993 ft | 440 kts | 206° |
| 2026-04-30 08:42 | 33.59541 | 126.46053 | 35993 ft | 441 kts | 206° |
| 2026-04-30 08:42 | 33.53782 | 126.43572 | 35993 ft | 441 kts | 206° |
| 2026-04-30 08:43 | 33.47982 | 126.41073 | 35993 ft | 441 kts | 206° |
| 2026-04-30 08:43 | 33.42253 | 126.38607 | 35993 ft | 441 kts | 206° |
| 2026-04-30 08:44 | 33.36460 | 126.36118 | 35993 ft | 441 kts | 206° |
| 2026-04-30 08:44 | 33.30716 | 126.33651 | 35992 ft | 441 kts | 206° |
| 2026-04-30 08:45 | 33.24901 | 126.31162 | 35993 ft | 442 kts | 206° |
| 2026-04-30 08:45 | 33.19104 | 126.28681 | 35993 ft | 442 kts | 205° |
| 2026-04-30 08:46 | 33.13318 | 126.26208 | 35993 ft | 441 kts | 205° |
| 2026-04-30 08:46 | 33.07525 | 126.23732 | 35992 ft | 444 kts | 205° |
| 2026-04-30 08:47 | 33.01718 | 126.21255 | 35992 ft | 448 kts | 204° |
| 2026-04-30 08:47 | 32.95788 | 126.18716 | 35993 ft | 453 kts | 203° |
| 2026-04-30 08:48 | 32.89806 | 126.16147 | 35993 ft | 457 kts | 203° |
| 2026-04-30 08:48 | 32.83841 | 126.13590 | 35993 ft | 458 kts | 203° |
| 2026-04-30 08:49 | 32.77820 | 126.11013 | 35993 ft | 459 kts | 203° |
| 2026-04-30 08:49 | 32.71804 | 126.08441 | 35993 ft | 459 kts | 203° |
| 2026-04-30 08:50 | 32.65786 | 126.05874 | 35993 ft | 459 kts | 203° |
| 2026-04-30 08:50 | 32.59781 | 126.03315 | 35992 ft | 459 kts | 203° |
| 2026-04-30 08:51 | 32.53789 | 126.00764 | 35993 ft | 459 kts | 203° |
| 2026-04-30 08:51 | 32.47751 | 125.98199 | 35992 ft | 458 kts | 203° |
| 2026-04-30 08:52 | 32.41749 | 125.95657 | 35993 ft | 459 kts | 203° |
| 2026-04-30 08:52 | 32.35712 | 125.93101 | 35993 ft | 459 kts | 203° |
| 2026-04-30 08:53 | 32.29686 | 125.90555 | 35993 ft | 459 kts | 203° |
| 2026-04-30 08:53 | 32.23688 | 125.88024 | 35993 ft | 458 kts | 203° |
| 2026-04-30 08:54 | 32.17627 | 125.85470 | 35993 ft | 459 kts | 203° |
| 2026-04-30 08:54 | 32.11657 | 125.82957 | 35993 ft | 459 kts | 203° |
| 2026-04-30 08:55 | 32.05834 | 125.79981 | 35992 ft | 453 kts | 214° |
| 2026-04-30 08:55 | 32.01141 | 125.75114 | 35990 ft | 442 kts | 238° |
| 2026-04-30 08:55 | 31.99728 | 125.71953 | 36006 ft | 439 kts | 249° |
| 2026-04-30 08:56 | 31.98697 | 125.68529 | 35993 ft | 439 kts | 253° |
| 2026-04-30 08:56 | 31.96996 | 125.61613 | 35992 ft | 439 kts | 256° |
| 2026-04-30 08:57 | 31.95390 | 125.54652 | 35992 ft | 439 kts | 256° |
| 2026-04-30 08:57 | 31.93796 | 125.47639 | 35992 ft | 440 kts | 256° |
| 2026-04-30 08:58 | 31.92219 | 125.40662 | 35993 ft | 440 kts | 256° |
| 2026-04-30 08:58 | 31.90656 | 125.33733 | 35993 ft | 440 kts | 256° |
| 2026-04-30 08:59 | 31.89081 | 125.26772 | 35992 ft | 440 kts | 256° |
| 2026-04-30 08:59 | 31.87496 | 125.19775 | 35993 ft | 440 kts | 256° |
| 2026-04-30 09:00 | 31.85902 | 125.12748 | 35993 ft | 440 kts | 256° |
| 2026-04-30 09:00 | 31.84312 | 125.05755 | 35993 ft | 440 kts | 256° |
| 2026-04-30 09:01 | 31.82737 | 124.98812 | 35993 ft | 439 kts | 256° |
| 2026-04-30 09:01 | 31.81230 | 124.91856 | 35993 ft | 438 kts | 256° |
| 2026-04-30 09:02 | 31.78983 | 124.81454 | 35993 ft | 437 kts | 256° |
| 2026-04-30 09:02 | 31.77484 | 124.74548 | 35993 ft | 437 kts | 256° |
| 2026-04-30 09:03 | 31.75980 | 124.67645 | 35993 ft | 437 kts | 256° |
| 2026-04-30 09:03 | 31.74462 | 124.60703 | 35993 ft | 437 kts | 256° |
| 2026-04-30 09:04 | 31.72945 | 124.53782 | 35994 ft | 437 kts | 256° |
| 2026-04-30 09:04 | 31.71419 | 124.46841 | 36018 ft | 436 kts | 256° |
| 2026-04-30 09:05 | 31.69892 | 124.39915 | 35968 ft | 437 kts | 256° |
| 2026-04-30 09:05 | 31.68364 | 124.33004 | 35964 ft | 437 kts | 255° |
| 2026-04-30 09:06 | 31.66839 | 124.26145 | 35963 ft | 437 kts | 255° |
| 2026-04-30 09:06 | 31.65296 | 124.19215 | 35963 ft | 437 kts | 255° |
| 2026-04-30 09:07 | 31.63761 | 124.12334 | 35963 ft | 437 kts | 256° |
| 2026-04-30 09:07 | 31.62222 | 124.05452 | 35963 ft | 437 kts | 256° |
| 2026-04-30 09:08 | 31.60686 | 123.98582 | 35963 ft | 437 kts | 256° |
| 2026-04-30 09:08 | 31.59170 | 123.91640 | 35963 ft | 437 kts | 256° |
| 2026-04-30 09:09 | 31.57668 | 123.84763 | 35899 ft | 429 kts | 256° |
| 2026-04-30 09:09 | 31.56943 | 123.81454 | 35730 ft | 411 kts | 256° |
| 2026-04-30 09:09 | 31.56242 | 123.78258 | 35553 ft | 399 kts | 256° |
| 2026-04-30 09:10 | 31.55553 | 123.75119 | 35340 ft | 400 kts | 256° |
| 2026-04-30 09:10 | 31.54854 | 123.71941 | 34851 ft | 406 kts | 256° |
| 2026-04-30 09:10 | 31.54150 | 123.68741 | 34352 ft | 406 kts | 256° |
| 2026-04-30 09:10 | 31.53445 | 123.65546 | 33854 ft | 404 kts | 256° |
| 2026-04-30 09:11 | 31.52739 | 123.62350 | 33353 ft | 404 kts | 256° |
| 2026-04-30 09:11 | 31.52041 | 123.59191 | 32859 ft | 406 kts | 256° |
| 2026-04-30 09:11 | 31.51325 | 123.55959 | 32274 ft | 409 kts | 256° |
| 2026-04-30 09:11 | 31.50609 | 123.52728 | 31646 ft | 410 kts | 256° |
| 2026-04-30 09:12 | 31.49907 | 123.49541 | 31027 ft | 412 kts | 256° |
| 2026-04-30 09:12 | 31.49254 | 123.46231 | 30393 ft | 413 kts | 257° |
| 2026-04-30 09:12 | 31.48638 | 123.42951 | 29768 ft | 415 kts | 257° |
| 2026-04-30 09:12 | 31.48017 | 123.39635 | 29090 ft | 418 kts | 257° |
| 2026-04-30 09:13 | 31.47388 | 123.36285 | 28333 ft | 420 kts | 257° |
| 2026-04-30 09:13 | 31.46757 | 123.32941 | 27578 ft | 421 kts | 257° |
| 2026-04-30 09:13 | 31.46125 | 123.29610 | 26832 ft | 424 kts | 256° |
| 2026-04-30 09:13 | 31.45553 | 123.26607 | 26161 ft | 426 kts | 256° |
| 2026-04-30 09:14 | 31.44914 | 123.23256 | 25417 ft | 428 kts | 256° |
| 2026-04-30 09:14 | 31.44257 | 123.19816 | 24652 ft | 425 kts | 256° |
| 2026-04-30 09:14 | 31.43615 | 123.16457 | 23896 ft | 420 kts | 256° |
| 2026-04-30 09:14 | 31.42985 | 123.13171 | 23149 ft | 416 kts | 256° |
| 2026-04-30 09:15 | 31.42351 | 123.09868 | 22392 ft | 412 kts | 256° |
| 2026-04-30 09:15 | 31.41732 | 123.06644 | 21647 ft | 410 kts | 256° |
| 2026-04-30 09:15 | 31.41099 | 123.03358 | 20883 ft | 407 kts | 256° |
| 2026-04-30 09:15 | 31.40484 | 123.00168 | 20136 ft | 405 kts | 255° |
| 2026-04-30 09:16 | 31.39860 | 122.96938 | 19376 ft | 403 kts | 255° |
| 2026-04-30 09:16 | 31.39242 | 122.93747 | 18623 ft | 404 kts | 255° |
| 2026-04-30 09:16 | 31.38625 | 122.90565 | 17891 ft | 409 kts | 255° |
| 2026-04-30 09:16 | 31.37990 | 122.87292 | 17128 ft | 407 kts | 256° |
| 2026-04-30 09:17 | 31.37373 | 122.84119 | 16381 ft | 403 kts | 256° |
| 2026-04-30 09:17 | 31.36759 | 122.80959 | 15629 ft | 398 kts | 256° |
| 2026-04-30 09:17 | 31.36143 | 122.77781 | 14866 ft | 395 kts | 256° |
| 2026-04-30 09:17 | 31.35548 | 122.74634 | 14106 ft | 391 kts | 256° |
| 2026-04-30 09:18 | 31.34977 | 122.71557 | 13764 ft | 384 kts | 257° |
| 2026-04-30 09:18 | 31.34403 | 122.68437 | 13766 ft | 390 kts | 257° |
| 2026-04-30 09:18 | 31.33840 | 122.65355 | 13759 ft | 390 kts | 257° |
| 2026-04-30 09:18 | 31.33272 | 122.62221 | 13741 ft | 390 kts | 257° |
| 2026-04-30 09:19 | 31.32708 | 122.59115 | 13384 ft | 389 kts | 257° |
| 2026-04-30 09:19 | 31.32147 | 122.56050 | 13004 ft | 385 kts | 257° |
| 2026-04-30 09:19 | 31.31578 | 122.52984 | 12628 ft | 383 kts | 257° |
| 2026-04-30 09:19 | 31.31008 | 122.49965 | 12255 ft | 381 kts | 257° |
| 2026-04-30 09:20 | 31.30426 | 122.46928 | 11880 ft | 379 kts | 257° |
| 2026-04-30 09:20 | 31.29839 | 122.43885 | 11500 ft | 378 kts | 257° |
| 2026-04-30 09:20 | 31.29267 | 122.40876 | 11126 ft | 377 kts | 257° |
| 2026-04-30 09:20 | 31.28700 | 122.37890 | 10749 ft | 375 kts | 257° |
| 2026-04-30 09:21 | 31.28131 | 122.34927 | 10375 ft | 373 kts | 256° |
| 2026-04-30 09:21 | 31.27558 | 122.31971 | 9999 ft | 372 kts | 256° |
| 2026-04-30 09:21 | 31.26984 | 122.29034 | 9624 ft | 370 kts | 256° |
| 2026-04-30 09:21 | 31.26401 | 122.26072 | 9243 ft | 369 kts | 256° |
| 2026-04-30 09:22 | 31.25820 | 122.23138 | 8866 ft | 367 kts | 256° |
| 2026-04-30 09:22 | 31.25250 | 122.20269 | 8476 ft | 353 kts | 256° |
| 2026-04-30 09:22 | 31.24713 | 122.17550 | 8096 ft | 335 kts | 256° |
| 2026-04-30 09:22 | 31.24212 | 122.14983 | 7891 ft | 316 kts | 256° |
| 2026-04-30 09:23 | 31.23725 | 122.12466 | 7897 ft | 314 kts | 256° |
| 2026-04-30 09:23 | 31.23244 | 122.09969 | 7893 ft | 315 kts | 257° |
| 2026-04-30 09:23 | 31.22765 | 122.07474 | 7894 ft | 315 kts | 257° |
| 2026-04-30 09:23 | 31.22287 | 122.04977 | 7893 ft | 315 kts | 257° |
| 2026-04-30 09:24 | 31.21812 | 122.02497 | 7893 ft | 315 kts | 257° |
| 2026-04-30 09:24 | 31.21330 | 121.99976 | 7735 ft | 317 kts | 257° |
| 2026-04-30 09:24 | 31.20851 | 121.97478 | 7341 ft | 313 kts | 257° |
| 2026-04-30 09:24 | 31.20377 | 121.95005 | 6965 ft | 311 kts | 257° |
| 2026-04-30 09:25 | 31.19900 | 121.92520 | 6586 ft | 310 kts | 257° |
| 2026-04-30 09:25 | 31.19429 | 121.90069 | 6211 ft | 308 kts | 257° |
| 2026-04-30 09:25 | 31.18954 | 121.87602 | 5910 ft | 305 kts | 257° |
| 2026-04-30 09:25 | 31.18489 | 121.85184 | 5902 ft | 306 kts | 257° |
| 2026-04-30 09:26 | 31.18012 | 121.82714 | 5892 ft | 308 kts | 257° |
| 2026-04-30 09:26 | 31.17542 | 121.80273 | 5892 ft | 307 kts | 258° |
| 2026-04-30 09:26 | 31.17296 | 121.77801 | 5886 ft | 307 kts | 270° |
| 2026-04-30 09:26 | 31.17368 | 121.75301 | 5898 ft | 307 kts | 273° |
| 2026-04-30 09:27 | 31.17494 | 121.72821 | 5892 ft | 307 kts | 274° |
| 2026-04-30 09:27 | 31.17615 | 121.70322 | 5889 ft | 307 kts | 269° |
| 2026-04-30 09:27 | 31.17107 | 121.67911 | 5728 ft | 308 kts | 241° |
| 2026-04-30 09:27 | 31.15874 | 121.65939 | 5504 ft | 305 kts | 227° |
| 2026-04-30 09:28 | 31.14372 | 121.64171 | 5260 ft | 304 kts | 223° |
| 2026-04-30 09:28 | 31.12827 | 121.62476 | 5007 ft | 303 kts | 223° |
| 2026-04-30 09:28 | 31.11281 | 121.60784 | 4754 ft | 302 kts | 223° |
| 2026-04-30 09:28 | 31.09767 | 121.59116 | 4505 ft | 302 kts | 223° |
| 2026-04-30 09:29 | 31.08262 | 121.57452 | 4236 ft | 289 kts | 223° |
| 2026-04-30 09:29 | 31.06848 | 121.55885 | 3977 ft | 274 kts | 224° |
| 2026-04-30 09:29 | 31.05487 | 121.54378 | 3721 ft | 261 kts | 224° |
| 2026-04-30 09:29 | 31.04201 | 121.52953 | 3471 ft | 251 kts | 224° |
| 2026-04-30 09:30 | 31.02942 | 121.51553 | 3223 ft | 249 kts | 224° |
| 2026-04-30 09:30 | 31.01683 | 121.50150 | 3008 ft | 248 kts | 224° |
| 2026-04-30 09:30 | 31.00448 | 121.48789 | 2999 ft | 248 kts | 224° |
| 2026-04-30 09:30 | 30.99179 | 121.47385 | 2835 ft | 252 kts | 224° |
| 2026-04-30 09:31 | 30.98008 | 121.45916 | 2568 ft | 242 kts | 237° |
| 2026-04-30 09:31 | 30.97338 | 121.44167 | 2305 ft | 231 kts | 262° |
| 2026-04-30 09:31 | 30.97185 | 121.42353 | 2063 ft | 220 kts | 268° |
| 2026-04-30 09:31 | 30.97151 | 121.40608 | 1850 ft | 207 kts | 270° |
| 2026-04-30 09:32 | 30.97115 | 121.39040 | 1795 ft | 181 kts | 269° |
| 2026-04-30 09:32 | 30.97051 | 121.37653 | 1749 ft | 168 kts | 270° |
| 2026-04-30 09:32 | 30.97180 | 121.36334 | 1790 ft | 158 kts | 290° |
| 2026-04-30 09:32 | 30.97771 | 121.35284 | 1799 ft | 158 kts | 319° |
| 2026-04-30 09:33 | 30.98748 | 121.34689 | 1802 ft | 159 kts | 346° |
| 2026-04-30 09:33 | 30.99859 | 121.34573 | 1794 ft | 160 kts | 4° |
| 2026-04-30 09:33 | 31.00935 | 121.34913 | 1794 ft | 153 kts | 13° |
| 2026-04-30 09:33 | 31.01918 | 121.34905 | 1787 ft | 135 kts | 348° |
| 2026-04-30 09:34 | 31.02803 | 121.34642 | 1914 ft | 136 kts | 348° |
| 2026-04-30 09:34 | 31.03772 | 121.34498 | 1783 ft | 138 kts | 358° |
| 2026-04-30 09:34 | 31.04716 | 121.34450 | 1783 ft | 135 kts | 358° |
| 2026-04-30 09:34 | 31.05677 | 121.34401 | 1788 ft | 139 kts | 357° |
| 2026-04-30 09:35 | 31.06629 | 121.34354 | 1780 ft | 137 kts | 359° |
| 2026-04-30 09:35 | 31.07584 | 121.34302 | 1787 ft | 137 kts | 357° |
| 2026-04-30 09:35 | 31.08526 | 121.34253 | 1789 ft | 138 kts | 359° |
| 2026-04-30 09:35 | 31.09500 | 121.34197 | 1790 ft | 138 kts | 356° |
| 2026-04-30 09:36 | 31.10464 | 121.34150 | 1709 ft | 140 kts | 357° |
| 2026-04-30 09:36 | 31.11422 | 121.34082 | 1544 ft | 138 kts | 356° |
| 2026-04-30 09:36 | 31.12380 | 121.34020 | 1394 ft | 136 kts | 358° |
| 2026-04-30 09:36 | 31.13338 | 121.33981 | 1208 ft | 136 kts | 358° |
| 2026-04-30 09:37 | 31.14278 | 121.33939 | 960 ft | 136 kts | 357° |
| 2026-04-30 09:37 | 31.15212 | 121.33903 | 705 ft | 134 kts | 357° |
| 2026-04-30 09:37 | 31.16143 | 121.33843 | 487 ft | 130 kts | 356° |
| 2026-04-30 09:37 | 31.17040 | 121.33775 | 285 ft | 130 kts | 357° |
| 2026-04-30 09:38 | 31.17926 | 121.33736 | 106 ft | 126 kts | 357° |
| 2026-04-30 09:38 | 31.18767 | 121.33687 | 17 ft | 108 kts | 357° |
| 2026-04-30 09:38 | 31.19350 | 121.33654 | 13 ft | 60 kts | 357° |
| 2026-04-30 09:38 | 31.19719 | 121.33633 | 17 ft | 46 kts | 356° |
| 2026-04-30 09:39 | 31.19994 | 121.33637 | 16 ft | 31 kts | 9° |
| 2026-04-30 09:39 | 31.20135 | 121.33694 | 16 ft | 9 kts | 27° |
| 2026-04-30 09:39 | 31.20186 | 121.33724 | 15 ft | 6 kts | 27° |
| 2026-04-30 09:39 | 31.20213 | 121.33741 | 14 ft | 1 kts | 27° |
| 2026-04-30 09:40 | 31.20216 | 121.33742 | 14 ft | 0 kts | 27° |
| 2026-04-30 09:40 | 31.20245 | 121.33761 | 14 ft | 7 kts | 27° |
| 2026-04-30 09:40 | 31.20265 | 121.33772 | 15 ft | 0 kts | 27° |
| 2026-04-30 09:41 | 31.20271 | 121.33776 | 15 ft | 4 kts | 27° |
| 2026-04-30 09:42 | 31.20298 | 121.33825 | 15 ft | 9 kts | 107° |
| 2026-04-30 09:42 | 31.20228 | 121.33858 | 14 ft | 13 kts | 176° |
| 2026-04-30 09:42 | 31.20114 | 121.33866 | 14 ft | 18 kts | 176° |
| 2026-04-30 09:42 | 31.19992 | 121.33872 | 16 ft | 16 kts | 178° |
| 2026-04-30 09:43 | 31.19899 | 121.33903 | 17 ft | 12 kts | 117° |
| 2026-04-30 09:43 | 31.19869 | 121.33987 | 18 ft | 9 kts | 137° |
| 2026-04-30 09:43 | 31.19825 | 121.34031 | 19 ft | 7 kts | 139° |
| 2026-04-30 09:43 | 31.19792 | 121.34067 | 19 ft | 5 kts | 137° |
| 2026-04-30 09:44 | 31.19791 | 121.34068 | 19 ft | 0 kts | 137° |